Погода Шудовцына 2 недели

Витебская область, Белоруссия

24 мая-06 июня
  • 24мая
    Сегодня
    +12°
    +25°
    Ясно и безоблачно
    ВремяПогодаТемператураВлажностьДавлениеВетер, м/сВероятность осадков
    00:00Облачно с прояснениями+16°C82 %754 мм1.8 м/с2 %
    03:00Небольшая облачность+14°C76 %755 мм1.7 м/с2 %
    06:00Небольшая облачность+14°C66 %755 мм1.8 м/с2 %
    09:00Ясно и безоблачно+19°C63 %756 мм2.3 м/с2 %
    12:00Ясно и безоблачно+23°C55 %756 мм3.6 м/с2 %
    15:00Ясно и безоблачно+24°C47 %756 мм4.2 м/с2 %
    18:00Небольшая облачность+24°C47 %755 мм3.0 м/с5 %
    21:00Ясно и безоблачно+20°C63 %755 мм1.8 м/с2 %
  • 25мая
    Суббота
    +11°
    +25°
    Облачно с прояснениями
    ВремяПогодаТемператураВлажностьДавлениеВетер, м/сВероятность осадков
    00:00Ясно и безоблачно+16°C71 %755 мм1.6 м/с2 %
    03:00Ясно и безоблачно+13°C73 %755 мм1.3 м/с2 %
    06:00Ясно и безоблачно+13°C72 %755 мм1.4 м/с2 %
    09:00Ясно и безоблачно+19°C61 %755 мм2.0 м/с2 %
    12:00Ясно и безоблачно+24°C52 %755 мм3.2 м/с1 %
    15:00Облачно с прояснениями+24°C60 %755 мм3.7 м/с19 %
    18:00Облачно с прояснениями+23°C53 %754 мм2.4 м/с41 %
    21:00Облачно с прояснениями+19°C81 %754 мм1.3 м/с26 %
  • 26мая
    Воскресенье
    +10°
    +25°
    Ясно и безоблачно
    ВремяПогодаТемператураВлажностьДавлениеВетер, м/сВероятность осадков
    00:00Облачно с прояснениями+15°C89 %754 мм0.9 м/с5 %
    03:00Облачно с прояснениями+12°C93 %754 мм0.7 м/с6 %
    06:00Облачно с прояснениями+13°C88 %754 мм0.9 м/с2 %
    09:00Ясно и безоблачно+20°C59 %755 мм1.3 м/с2 %
    12:00Ясно и безоблачно+24°C39 %755 мм2.8 м/с2 %
    15:00Ясно и безоблачно+25°C35 %755 мм3.4 м/с2 %
    18:00Практически безоблачно+24°C36 %754 мм2.3 м/с2 %
    21:00Ясно и безоблачно+20°C61 %754 мм1.1 м/с2 %
  • 27мая
    Понедельник
    +12°
    +27°
    Небольшая облачность
    ВремяПогодаТемператураВлажностьДавлениеВетер, м/сВероятность осадков
    00:00Практически безоблачно+15°C63 %755 мм0.6 м/с2 %
    03:00Практически безоблачно+13°C67 %755 мм0.2 м/с2 %
    06:00Ясно и безоблачно+13°C82 %755 мм0.5 м/с2 %
    09:00Ясно и безоблачно+21°C52 %755 мм1.3 м/с2 %
    12:00Практически безоблачно+25°C38 %755 мм3.0 м/с2 %
    15:00Небольшая облачность+26°C36 %754 мм3.5 м/с2 %
    18:00Ясно и безоблачно+26°C36 %753 мм2.3 м/с12 %
    21:00Небольшая облачность+21°C67 %753 мм1.1 м/с8 %
  • 28мая
    Вторник
    +13°
    +28°
    Ясно и безоблачно
    ВремяПогодаТемператураВлажностьДавлениеВетер, м/сВероятность осадков
    00:00Облачно с прояснениями+17°C76 %753 мм0.5 м/с2 %
    03:00Ясно и безоблачно+14°C82 %753 мм0.5 м/с2 %
    06:00Ясно и безоблачно+14°C88 %753 мм0.6 м/с2 %
    09:00Ясно и безоблачно+21°C54 %753 мм1.2 м/с2 %
    12:00Ясно и безоблачно+25°C38 %753 мм3.1 м/с4 %
    15:00Ясно и безоблачно+26°C35 %753 мм3.1 м/с11 %
    18:00Практически безоблачно+25°C38 %752 мм2.5 м/с25 %
    21:00Ясно и безоблачно+22°C55 %751 мм1.5 м/с12 %
Мы используем cookies
Соглашаюсь